Tubul — A8VP8 — position and weather

sailwx.info

Track history (hours):
 
Tides and Currents Weather Stations Pressure Air Temp Water Temp Dewpoint Dewpoint Depression Visibility Wind Speed Wind Dir Waves Ship Positions

Tubul

Last reported at 2014-Aug-10 12:31 UTC. Time now 2014-Aug-22 03:58 UTC.
Position N 01°12' E 103°39'.
Warning: this ship's position is 11 days out of date.

Length 300 m; draft 11.8 m.

Type: Ship. MMSI: 636014647.

Date/timePositionNaut miles runAvg speedWind from/ knotsBaromVisibWave heightAir tempDewpointWater temp
2014-Aug-10 12:31N 01°12' E 103°39'9 8.9
2014-Aug-10 11:33N 01°16' E 103°46'0 0.2
2014-Aug-10 10:29N 01°16' E 103°46'0 0.0
2014-Aug-10 09:32N 01°16' E 103°46'0 0.0
2014-Aug-10 08:26N 01°16' E 103°46'0 0.0
2014-Aug-10 07:29N 01°16' E 103°46'0 0.0
2014-Aug-10 06:32N 01°16' E 103°46'0 0.0
2014-Aug-10 05:17N 01°16' E 103°46'0 0.0
2014-Aug-10 04:29N 01°16' E 103°46'0 0.0
2014-Aug-10 03:32N 01°16' E 103°46'0 0.0
2014-Aug-10 02:29N 01°16' E 103°46'0 0.0
2014-Aug-10 01:29N 01°16' E 103°46'0 0.0
2014-Aug-10 00:29N 01°16' E 103°46'0 0.0
2014-Aug-09 23:29N 01°16' E 103°46'0 0.0
2014-Aug-09 22:29N 01°16' E 103°46'0 0.0
2014-Aug-09 21:29N 01°16' E 103°46'0 0.0
2014-Aug-09 20:29N 01°16' E 103°46'0 0.0
2014-Aug-09 19:29N 01°16' E 103°46'0 0.0
2014-Aug-09 18:23N 01°16' E 103°46'0 0.0
2014-Aug-09 17:29N 01°16' E 103°46'0 0.0
2014-Aug-09 16:29N 01°16' E 103°46'0 0.3
2014-Aug-09 15:33N 01°16' E 103°47'2 1.9
2014-Aug-09 14:33N 01°14' E 103°47'6 5.9
2014-Aug-09 13:33N 01°13' E 103°53'6 5.6
2014-Aug-09 12:33N 01°15' E 103°58'1010.1
2014-Aug-09 11:33N 01°17' E 104°08'  
2014-Aug-06 01:13N 22°06' E 114°09'28 2.7
2014-Aug-05 14:33N 22°34' E 114°17'1 1.0
2014-Aug-05 13:33N 22°34' E 114°16'0 0.0
2014-Aug-05 12:33N 22°34' E 114°16'0 0.0
2014-Aug-05 11:33N 22°34' E 114°16'0 0.0
2014-Aug-05 10:33N 22°34' E 114°16'0 0.0
2014-Aug-05 09:33N 22°34' E 114°16'0 0.0
2014-Aug-05 08:33N 22°34' E 114°16'0 0.0
2014-Aug-05 07:33N 22°34' E 114°16'0 0.0
2014-Aug-05 05:33N 22°34' E 114°16'0 0.0
2014-Aug-05 04:33N 22°34' E 114°16'0 0.0
2014-Aug-05 02:33N 22°34' E 114°16'0 0.0
2014-Aug-05 01:33N 22°34' E 114°16'16711.7
2014-Aug-04 11:15N 23°02' E 117°14'6016.2
2014-Aug-04 07:33N 23°40' E 118°05'1413.8
2014-Aug-04 06:33N 23°49' E 118°16'1615.6
2014-Aug-04 05:32N 23°57' E 118°31'5418.0
2014-Aug-04 02:33N 24°33' E 119°15'1915.0
2014-Aug-04 01:17N 24°46' E 119°30'31515.0
2014-Aug-03 04:16N 29°16' E 122°30'1915.5
2014-Aug-03 03:04N 29°35' E 122°32'713.4
2014-Aug-03 02:33N 29°41' E 122°28'1212.4
2014-Aug-03 01:33N 29°47' E 122°16'8 8.2
2014-Aug-03 00:33N 29°49' E 122°07'6 0.5
2014-Aug-02 11:29N 29°46' E 122°00'0 0.0
2014-Aug-02 10:05N 29°46' E 122°00'0 0.0
2014-Aug-02 06:29N 29°46' E 122°00'5 5.0
2014-Aug-02 05:34N 29°48' E 122°05'9 8.8
2014-Aug-02 04:33N 29°48' E 122°15'1010.0
2014-Aug-02 03:33N 29°44' E 122°25'1313.2
2014-Aug-02 02:33N 29°41' E 122°40'2 1.9
2014-Aug-02 01:33N 29°42' E 122°41'3 3.1
2014-Aug-02 00:33N 29°45' E 122°41'2 1.9
2014-Aug-01 23:33N 29°44' E 122°42'3 2.7
2014-Aug-01 22:33N 29°41' E 122°44'3 2.5
2014-Aug-01 21:34N 29°43' E 122°42'2 2.3
2014-Aug-01 20:33N 29°41' E 122°43'2 2.2
2014-Aug-01 19:33N 29°43' E 122°42'2 1.7
2014-Aug-01 18:33N 29°41' E 122°42'2 2.1
2014-Aug-01 17:33N 29°43' E 122°41'2 1.7
2014-Aug-01 16:33N 29°43' E 122°39'2 1.8
2014-Aug-01 15:34N 29°44' E 122°39'7 7.1
2014-Aug-01 14:33N 29°42' E 122°47'2 2.2
2014-Aug-01 13:33N 29°40' E 122°46'1 1.3
2014-Aug-01 12:32N 29°39' E 122°45'4 3.8
2014-Aug-01 11:32N 29°43' E 122°46'1 1.4
2014-Aug-01 10:33N 29°42' E 122°45'3 3.1
2014-Aug-01 09:33N 29°40' E 122°43'3 3.3
2014-Aug-01 08:33N 29°43' E 122°43'3 2.9
2014-Aug-01 07:33N 29°42' E 122°40'1 1.3
2014-Aug-01 06:33N 29°43' E 122°40'2 1.8
2014-Aug-01 05:33N 29°44' E 122°41'1 0.6
2014-Aug-01 04:33N 29°44' E 122°42'1 0.6
2014-Aug-01 03:33N 29°44' E 122°42'1 0.5
2014-Aug-01 02:33N 29°44' E 122°43'4 4.3
2014-Aug-01 01:33N 29°41' E 122°39'2 2.2
2014-Aug-01 00:33N 29°43' E 122°41'2 1.8
2014-Jul-31 23:33N 29°44' E 122°42'1 0.8
2014-Jul-31 22:33N 29°45' E 122°43'5 4.8
2014-Jul-31 21:33N 29°41' E 122°40'2 2.3
2014-Jul-31 20:33N 29°43' E 122°41'9 8.8
2014-Jul-31 19:33N 29°51' E 122°45'2115.0
2014-Jul-31 18:09N 30°07' E 123°01'1312.1
2014-Jul-31 17:05N 30°19' E 122°58'712.8
2014-Jul-31 16:34N 30°23' E 122°52'1212.4
2014-Jul-31 15:34N 30°29' E 122°40'1312.5
2014-Jul-31 14:34N 30°31' E 122°25'1111.2
2014-Jul-31 13:34N 30°33' E 122°12'  
Track history (hours):
 
Tides and Currents Weather Stations Pressure Air Temp Water Temp Dewpoint Dewpoint Depression Visibility Wind Speed Wind Dir Waves Ship Positions

Tubul

Last reported at 2014-Aug-10 12:31 UTC. Time now 2014-Aug-22 03:58 UTC.
Position N 01°12' E 103°39'.
Warning: this ship's position is 11 days out of date.

Length 300 m; draft 11.8 m.

Type: Ship. MMSI: 636014647.

Date/timePositionNaut miles runAvg speedWind from/ knotsBaromVisibWave heightAir tempDewpointWater temp
2014-Aug-10 12:31N 01°12' E 103°39'9 8.9
2014-Aug-10 11:33N 01°16' E 103°46'0 0.2
2014-Aug-10 10:29N 01°16' E 103°46'0 0.0
2014-Aug-10 09:32N 01°16' E 103°46'0 0.0
2014-Aug-10 08:26N 01°16' E 103°46'0 0.0
2014-Aug-10 07:29N 01°16' E 103°46'0 0.0
2014-Aug-10 06:32N 01°16' E 103°46'0 0.0
2014-Aug-10 05:17N 01°16' E 103°46'0 0.0
2014-Aug-10 04:29N 01°16' E 103°46'0 0.0
2014-Aug-10 03:32N 01°16' E 103°46'0 0.0
2014-Aug-10 02:29N 01°16' E 103°46'0 0.0
2014-Aug-10 01:29N 01°16' E 103°46'0 0.0
2014-Aug-10 00:29N 01°16' E 103°46'0 0.0
2014-Aug-09 23:29N 01°16' E 103°46'0 0.0
2014-Aug-09 22:29N 01°16' E 103°46'0 0.0
2014-Aug-09 21:29N 01°16' E 103°46'0 0.0
2014-Aug-09 20:29N 01°16' E 103°46'0 0.0
2014-Aug-09 19:29N 01°16' E 103°46'0 0.0
2014-Aug-09 18:23N 01°16' E 103°46'0 0.0
2014-Aug-09 17:29N 01°16' E 103°46'0 0.0
2014-Aug-09 16:29N 01°16' E 103°46'0 0.3
2014-Aug-09 15:33N 01°16' E 103°47'2 1.9
2014-Aug-09 14:33N 01°14' E 103°47'6 5.9
2014-Aug-09 13:33N 01°13' E 103°53'6 5.6
2014-Aug-09 12:33N 01°15' E 103°58'1010.1
2014-Aug-09 11:33N 01°17' E 104°08'  
2014-Aug-06 01:13N 22°06' E 114°09'28 2.7
2014-Aug-05 14:33N 22°34' E 114°17'1 1.0
2014-Aug-05 13:33N 22°34' E 114°16'0 0.0
2014-Aug-05 12:33N 22°34' E 114°16'0 0.0
2014-Aug-05 11:33N 22°34' E 114°16'0 0.0
2014-Aug-05 10:33N 22°34' E 114°16'0 0.0
2014-Aug-05 09:33N 22°34' E 114°16'0 0.0
2014-Aug-05 08:33N 22°34' E 114°16'0 0.0
2014-Aug-05 07:33N 22°34' E 114°16'0 0.0
2014-Aug-05 05:33N 22°34' E 114°16'0 0.0
2014-Aug-05 04:33N 22°34' E 114°16'0 0.0
2014-Aug-05 02:33N 22°34' E 114°16'0 0.0
2014-Aug-05 01:33N 22°34' E 114°16'16711.7
2014-Aug-04 11:15N 23°02' E 117°14'6016.2
2014-Aug-04 07:33N 23°40' E 118°05'1413.8
2014-Aug-04 06:33N 23°49' E 118°16'1615.6
2014-Aug-04 05:32N 23°57' E 118°31'5418.0
2014-Aug-04 02:33N 24°33' E 119°15'1915.0
2014-Aug-04 01:17N 24°46' E 119°30'31515.0
2014-Aug-03 04:16N 29°16' E 122°30'1915.5
2014-Aug-03 03:04N 29°35' E 122°32'713.4
2014-Aug-03 02:33N 29°41' E 122°28'1212.4
2014-Aug-03 01:33N 29°47' E 122°16'8 8.2
2014-Aug-03 00:33N 29°49' E 122°07'6 0.5
2014-Aug-02 11:29N 29°46' E 122°00'0 0.0
2014-Aug-02 10:05N 29°46' E 122°00'0 0.0
2014-Aug-02 06:29N 29°46' E 122°00'5 5.0
2014-Aug-02 05:34N 29°48' E 122°05'9 8.8
2014-Aug-02 04:33N 29°48' E 122°15'1010.0
2014-Aug-02 03:33N 29°44' E 122°25'1313.2
2014-Aug-02 02:33N 29°41' E 122°40'2 1.9
2014-Aug-02 01:33N 29°42' E 122°41'3 3.1
2014-Aug-02 00:33N 29°45' E 122°41'2 1.9
2014-Aug-01 23:33N 29°44' E 122°42'3 2.7
2014-Aug-01 22:33N 29°41' E 122°44'3 2.5
2014-Aug-01 21:34N 29°43' E 122°42'2 2.3
2014-Aug-01 20:33N 29°41' E 122°43'2 2.2
2014-Aug-01 19:33N 29°43' E 122°42'2 1.7
2014-Aug-01 18:33N 29°41' E 122°42'2 2.1
2014-Aug-01 17:33N 29°43' E 122°41'2 1.7
2014-Aug-01 16:33N 29°43' E 122°39'2 1.8
2014-Aug-01 15:34N 29°44' E 122°39'7 7.1
2014-Aug-01 14:33N 29°42' E 122°47'2 2.2
2014-Aug-01 13:33N 29°40' E 122°46'1 1.3
2014-Aug-01 12:32N 29°39' E 122°45'4 3.8
2014-Aug-01 11:32N 29°43' E 122°46'1 1.4
2014-Aug-01 10:33N 29°42' E 122°45'3 3.1
2014-Aug-01 09:33N 29°40' E 122°43'3 3.3
2014-Aug-01 08:33N 29°43' E 122°43'3 2.9
2014-Aug-01 07:33N 29°42' E 122°40'1 1.3
2014-Aug-01 06:33N 29°43' E 122°40'2 1.8
2014-Aug-01 05:33N 29°44' E 122°41'1 0.6
2014-Aug-01 04:33N 29°44' E 122°42'1 0.6
2014-Aug-01 03:33N 29°44' E 122°42'1 0.5
2014-Aug-01 02:33N 29°44' E 122°43'4 4.3
2014-Aug-01 01:33N 29°41' E 122°39'2 2.2
2014-Aug-01 00:33N 29°43' E 122°41'2 1.8
2014-Jul-31 23:33N 29°44' E 122°42'1 0.8
2014-Jul-31 22:33N 29°45' E 122°43'5 4.8
2014-Jul-31 21:33N 29°41' E 122°40'2 2.3
2014-Jul-31 20:33N 29°43' E 122°41'9 8.8
2014-Jul-31 19:33N 29°51' E 122°45'2115.0
2014-Jul-31 18:09N 30°07' E 123°01'1312.1
2014-Jul-31 17:05N 30°19' E 122°58'712.8
2014-Jul-31 16:34N 30°23' E 122°52'1212.4
2014-Jul-31 15:34N 30°29' E 122°40'1312.5
2014-Jul-31 14:34N 30°31' E 122°25'1111.2
2014-Jul-31 13:34N 30°33' E 122°12'  

Dump ship's entire track history